Francistown, Botswana
Current Conditions -  °F | °C
As of 1:00 AM on Saturday 20 Dec 2014 (Local Time) from FBFT Reporting Station
Scattered Clouds Scattered Clouds  
Wind Chill: 70°   Ceiling: Unl
Heat Index: 70°   Visibility: 6mi
Dew Point: 68°   Wind: 1mph
Humidity: 94%   Direction: NA
Pressure: 29.97"   Gusts: NA
Location:  21.17°S, 27.5°E
Report Text: FBFT 192300Z VRB01KT 9999 FEW030CB SCT065 21/20 Q1015
Loading
Personal Weather Stations






























Interactive Weather Map New forecast layout! Learn more

10-Day Weather Forecast

Advertisements
Track Severe Weather on mobile